Time;durP1;ratioP1;P1;durP2;ratioP2;P2;SDS_P1;SDS_P2;PMS_P1;PMS_P2;Temp;Humidity;BMP_temperature;BMP_pressure;BME280_temperature;BME280_humidity;BME280_pressure;Samples;Min_cycle;Max_cycle;Signal;HPM_P1;HPM_P2
2022/10/17 00:01:21;;;;;;;4.83;1.83;;;13.00;99.90;;;;;;5074388;28;20717;-74
2022/10/17 00:03:47;;;;;;;5.10;1.50;;;13.00;99.90;;;;;;5069392;28;20075;-74
2022/10/17 00:06:14;;;;;;;4.25;1.75;;;13.00;99.90;;;;;;5085404;28;20032;-74
2022/10/17 00:08:41;;;;;;;5.05;1.63;;;13.00;99.90;;;;;;5085602;28;20401;-74
2022/10/17 00:11:13;;;;;;;4.47;1.70;;;13.00;99.90;;;;;;5078199;28;20091;-74
2022/10/17 00:13:38;;;;;;;4.68;1.70;;;13.00;99.90;;;;;;5080081;28;20097;-74
2022/10/17 00:16:04;;;;;;;5.00;1.90;;;13.00;99.90;;;;;;5085087;28;20444;-74
2022/10/17 00:18:30;;;;;;;5.18;1.85;;;13.00;99.90;;;;;;5078388;28;20489;-74
2022/10/17 00:20:56;;;;;;;6.97;2.23;;;13.00;99.90;;;;;;5079280;28;20214;-74
2022/10/17 00:23:21;;;;;;;6.33;1.67;;;12.90;99.90;;;;;;5077395;28;20052;-74
2022/10/17 00:25:56;;;;;;;8.27;2.30;;;13.00;99.90;;;;;;5065663;28;20571;-74
2022/10/17 00:28:21;;;;;;;6.00;2.17;;;13.00;99.90;;;;;;5082110;28;20078;-74
2022/10/17 00:30:58;;;;;;;3.33;1.30;;;13.00;99.90;;;;;;5088078;28;20442;-74
2022/10/17 00:33:24;;;;;;;2.85;1.30;;;13.00;99.90;;;;;;5078684;28;20302;-74
2022/10/17 00:35:49;;;;;;;4.45;1.73;;;13.00;99.90;;;;;;5071219;28;20459;-74
2022/10/17 00:38:15;;;;;;;4.05;1.75;;;13.00;99.90;;;;;;5074124;28;20050;-74
2022/10/17 00:40:41;;;;;;;5.33;1.90;;;13.10;99.90;;;;;;5076478;28;20048;-74
2022/10/17 00:43:17;;;;;;;10.27;2.73;;;13.00;99.90;;;;;;5097746;28;20370;-74
2022/10/17 00:45:42;;;;;;;3.88;1.50;;;13.10;99.90;;;;;;5097420;28;20123;-74
2022/10/17 00:48:10;;;;;;;4.65;1.60;;;13.10;99.90;;;;;;5078244;28;20120;-74
2022/10/17 00:50:40;;;;;;;3.88;2.05;;;13.10;99.90;;;;;;5066744;28;20041;-74
2022/10/17 00:53:08;;;;;;;4.05;2.17;;;13.10;99.90;;;;;;5073798;28;20041;-74
2022/10/17 00:55:41;;;;;;;6.28;1.90;;;13.10;99.90;;;;;;5050004;28;20048;-74
2022/10/17 00:58:06;;;;;;;8.55;1.88;;;13.00;99.90;;;;;;5072658;28;20079;-74
2022/10/17 01:00:32;;;;;;;5.47;1.85;;;13.10;99.90;;;;;;5070905;28;20167;-74
2022/10/17 01:02:58;;;;;;;9.80;2.10;;;13.10;99.90;;;;;;5086323;28;20162;-74
2022/10/17 01:05:23;;;;;;;7.78;1.83;;;13.10;99.90;;;;;;5082778;28;20504;-74
2022/10/17 01:07:51;;;;;;;4.87;2.07;;;13.10;99.90;;;;;;5083108;28;20080;-74
2022/10/17 01:10:21;;;;;;;8.52;1.80;;;13.10;99.90;;;;;;5075032;28;20274;-74
2022/10/17 01:13:12;;;;;;;6.78;2.10;;;13.10;99.90;;;;;;5083938;28;20040;-74
2022/10/17 01:15:59;;;;;;;6.57;2.03;;;13.10;99.90;;;;;;5072786;28;20040;-74
2022/10/17 01:18:36;;;;;;;6.63;2.22;;;13.10;99.90;;;;;;5078783;28;20063;-74
2022/10/17 01:21:11;;;;;;;11.38;1.98;;;13.10;99.90;;;;;;5085078;28;20523;-74
2022/10/17 01:23:51;;;;;;;6.45;2.42;;;13.20;99.90;;;;;;5081127;28;20323;-74
2022/10/17 01:26:29;;;;;;;3.47;2.15;;;13.20;99.90;;;;;;5085251;28;20079;-74
2022/10/17 01:29:18;;;;;;;3.58;2.00;;;13.20;99.90;;;;;;5085251;28;20062;-74
2022/10/17 01:32:09;;;;;;;6.32;2.30;;;13.20;99.90;;;;;;5104153;28;20047;-74
2022/10/17 01:34:47;;;;;;;5.57;2.50;;;13.20;99.90;;;;;;5085042;28;20717;-74
2022/10/17 01:37:30;;;;;;;4.65;2.20;;;13.20;99.90;;;;;;5077098;28;20050;-74
2022/10/17 01:40:19;;;;;;;3.55;2.00;;;13.20;99.90;;;;;;5077101;28;20044;-74
2022/10/17 01:42:56;;;;;;;5.72;2.10;;;13.20;99.90;;;;;;5089239;28;20480;-74
2022/10/17 01:45:30;;;;;;;8.45;2.00;;;13.20;99.90;;;;;;5071571;28;20044;-74
2022/10/17 01:47:59;;;;;;;9.88;2.15;;;13.20;99.90;;;;;;5070301;28;20093;-74
2022/10/17 01:50:32;;;;;;;7.45;2.63;;;13.20;99.90;;;;;;5087889;28;20093;-74
2022/10/17 01:53:03;;;;;;;5.40;2.65;;;13.20;99.90;;;;;;5076222;28;20036;-74
2022/10/17 01:55:39;;;;;;;4.00;2.53;;;13.20;99.90;;;;;;5082614;28;20054;-74
2022/10/17 01:58:12;;;;;;;6.28;2.13;;;13.20;99.90;;;;;;5072545;28;20454;-74
2022/10/17 02:00:41;;;;;;;4.93;2.22;;;13.20;99.90;;;;;;5074769;28;20039;-74
2022/10/17 02:03:12;;;;;;;9.18;2.85;;;13.20;99.90;;;;;;5063165;28;20039;-74
2022/10/17 02:05:40;;;;;;;8.75;2.35;;;13.20;99.90;;;;;;5075011;28;20545;-74
2022/10/17 02:08:06;;;;;;;8.45;2.20;;;13.20;99.90;;;;;;5087559;28;20028;-74
2022/10/17 02:10:38;;;;;;;;;;;13.20;99.90;;;;;;5077486;28;20048;-76
2022/10/17 02:13:20;;;;;;;3.90;2.28;;;13.10;99.90;;;;;;5054635;28;19923;-74
2022/10/17 02:15:58;;;;;;;6.22;2.47;;;13.20;99.90;;;;;;5076544;28;20528;-74
2022/10/17 02:18:40;;;;;;;4.95;2.30;;;13.20;99.90;;;;;;5077775;28;20294;-74
2022/10/17 02:21:30;;;;;;;4.10;2.88;;;13.10;99.90;;;;;;5067320;28;20044;-74
2022/10/17 02:24:09;;;;;;;5.05;2.70;;;13.20;99.90;;;;;;5082539;28;20040;-74
2022/10/17 02:26:45;;;;;;;4.57;2.53;;;13.20;99.90;;;;;;5083869;28;20489;-74
2022/10/17 02:29:15;;;;;;;4.40;2.43;;;13.20;99.90;;;;;;5075085;28;20079;-74
2022/10/17 02:31:46;;;;;;;3.90;2.67;;;13.20;99.90;;;;;;5076867;28;20372;-74
2022/10/17 02:34:31;;;;;;;5.55;2.70;;;13.20;99.90;;;;;;5067970;28;20123;-74
2022/10/17 02:37:04;;;;;;;4.78;2.70;;;13.20;99.90;;;;;;5067110;28;20260;-74
2022/10/17 02:39:31;;;;;;;4.20;2.72;;;13.20;99.90;;;;;;5116532;22;20493;-73
2022/10/17 02:42:01;;;;;;;5.43;2.30;;;13.20;99.90;;;;;;5104348;28;20053;-74
2022/10/17 02:44:28;;;;;;;5.35;2.92;;;13.10;99.90;;;;;;5097122;28;20114;-74
2022/10/17 02:47:02;;;;;;;7.97;3.40;;;13.20;99.90;;;;;;5072278;28;20080;-73
2022/10/17 02:49:32;;;;;;;7.20;3.30;;;13.20;99.90;;;;;;5063060;28;20091;-73
2022/10/17 02:52:16;;;;;;;8.27;2.83;;;13.20;99.90;;;;;;5065526;28;20044;-73
2022/10/17 02:54:53;;;;;;;6.82;3.03;;;13.10;99.90;;;;;;5083315;28;20040;-74
2022/10/17 02:57:26;;;;;;;5.32;2.75;;;13.10;99.90;;;;;;5084976;28;20573;-74
2022/10/17 02:59:53;;;;;;;5.60;3.03;;;13.10;99.90;;;;;;5065963;28;20049;-74
2022/10/17 03:02:18;;;;;;;3.97;2.85;;;13.10;99.90;;;;;;5080603;28;20102;-74
2022/10/17 03:04:45;;;;;;;9.33;3.27;;;13.20;99.90;;;;;;5082753;28;20449;-73
2022/10/17 03:07:12;;;;;;;8.95;3.08;;;13.10;99.90;;;;;;5076582;28;20350;-74
2022/10/17 03:09:37;;;;;;;6.35;3.38;;;13.10;99.90;;;;;;5103788;28;20131;-73
2022/10/17 03:12:04;;;;;;;6.50;3.38;;;13.10;99.90;;;;;;5108463;28;20141;-74
2022/10/17 03:14:30;;;;;;;;;;;13.10;99.90;;;;;;5089437;28;20042;-73
2022/10/17 03:16:55;;;;;;;5.93;3.10;;;13.10;99.90;;;;;;5083306;28;19920;-73
2022/10/17 03:19:21;;;;;;;6.33;3.60;;;13.10;99.90;;;;;;5100978;28;20132;-78
2022/10/17 03:21:46;;;;;;;5.60;3.70;;;13.10;99.90;;;;;;5085937;28;20142;-77
2022/10/17 03:24:12;;;;;;;5.80;3.53;;;13.20;99.90;;;;;;5082641;28;20334;-73
2022/10/17 03:26:38;;;;;;;10.07;3.90;;;13.10;99.90;;;;;;5104082;28;20111;-73
2022/10/17 03:29:03;;;;;;;5.80;3.92;;;13.10;99.90;;;;;;5088469;28;20115;-74
2022/10/17 03:31:29;;;;;;;8.35;3.80;;;13.10;99.90;;;;;;5089631;28;20112;-74
2022/10/17 03:33:54;;;;;;;5.73;3.17;;;13.10;99.90;;;;;;5084039;28;20032;-73
2022/10/17 03:36:20;;;;;;;6.27;4.33;;;13.10;99.90;;;;;;5068179;28;20091;-74
2022/10/17 03:38:47;;;;;;;9.43;4.25;;;13.10;99.90;;;;;;5079144;28;20128;-74
2022/10/17 03:41:13;;;;;;;7.88;3.90;;;13.10;99.90;;;;;;5081296;28;20056;-74
2022/10/17 03:43:39;;;;;;;7.65;4.30;;;13.10;99.90;;;;;;5085673;28;20040;-73
2022/10/17 03:46:05;;;;;;;8.75;4.18;;;13.10;99.90;;;;;;5077919;28;20122;-73
2022/10/17 03:48:31;;;;;;;;;;;13.10;99.90;;;;;;5091117;28;20075;-73
2022/10/17 03:50:59;;;;;;;10.20;4.30;;;13.10;99.90;;;;;;5087683;28;19955;-73
2022/10/17 03:53:25;;;;;;;7.43;4.40;;;13.20;99.90;;;;;;5087904;28;20520;-74
2022/10/17 03:55:50;;;;;;;7.53;4.75;;;13.10;99.90;;;;;;5087621;28;20284;-73
2022/10/17 03:58:16;;;;;;;6.20;4.50;;;13.10;99.90;;;;;;5080844;28;20052;-73
2022/10/17 04:00:41;;;;;;;10.90;4.70;;;13.10;99.90;;;;;;5072338;28;20123;-73
2022/10/17 04:03:07;;;;;;;7.30;4.33;;;13.10;99.90;;;;;;5088363;28;20045;-73
2022/10/17 04:05:32;;;;;;;6.60;4.47;;;13.10;99.90;;;;;;5067056;28;20127;-74
2022/10/17 04:07:58;;;;;;;9.20;4.37;;;13.10;99.90;;;;;;5092216;28;20333;-73
2022/10/17 04:10:24;;;;;;;9.97;5.20;;;13.10;99.90;;;;;;5090413;28;20086;-73
2022/10/17 04:12:49;;;;;;;9.13;5.47;;;13.20;99.90;;;;;;5107747;28;20046;-73
2022/10/17 04:15:15;;;;;;;7.23;5.37;;;13.20;99.90;;;;;;5091879;28;20133;-74
2022/10/17 04:17:40;;;;;;;9.38;5.07;;;13.20;99.90;;;;;;5086520;28;20265;-73
2022/10/17 04:20:07;;;;;;;9.10;5.70;;;13.20;99.90;;;;;;5095748;28;20120;-73
2022/10/17 04:22:33;;;;;;;9.65;5.03;;;13.20;99.90;;;;;;5106888;28;20047;-73
2022/10/17 04:24:58;;;;;;;9.38;5.43;;;13.30;99.90;;;;;;5092203;28;20366;-73
2022/10/17 04:27:24;;;;;;;10.50;5.90;;;13.20;99.90;;;;;;5075225;28;20052;-73
2022/10/17 04:29:49;;;;;;;11.77;5.93;;;13.30;99.90;;;;;;5078176;28;20040;-73
2022/10/17 04:32:16;;;;;;;8.90;6.07;;;13.40;99.90;;;;;;5088229;28;20352;-74
2022/10/17 04:34:41;;;;;;;10.82;5.75;;;13.40;99.90;;;;;;5089501;28;20104;-73
2022/10/17 04:37:07;;;;;;;8.85;6.00;;;13.40;99.90;;;;;;5094775;28;20152;-73
2022/10/17 04:39:32;;;;;;;10.47;6.57;;;13.40;99.90;;;;;;5098277;28;20436;-74
2022/10/17 04:41:58;;;;;;;10.50;5.93;;;13.50;99.90;;;;;;5104109;28;20300;-73
2022/10/17 04:44:24;;;;;;;9.90;5.90;;;13.50;99.90;;;;;;5087455;28;20508;-74
2022/10/17 04:46:49;;;;;;;10.65;6.05;;;13.60;99.90;;;;;;5089014;28;20040;-73
2022/10/17 04:49:15;;;;;;;9.73;6.23;;;13.60;99.90;;;;;;5087138;28;20494;-73
2022/10/17 04:51:43;;;;;;;9.63;5.80;;;13.60;99.90;;;;;;5086427;28;20508;-74
2022/10/17 04:54:09;;;;;;;11.15;6.32;;;13.70;99.90;;;;;;5087900;28;20065;-74
2022/10/17 04:56:35;;;;;;;10.95;5.93;;;13.70;99.90;;;;;;5070198;28;20040;-73
2022/10/17 04:59:00;;;;;;;10.40;6.00;;;13.70;99.90;;;;;;5067585;28;20508;-73
2022/10/17 05:01:26;;;;;;;10.20;6.47;;;13.70;99.90;;;;;;5067350;28;20049;-74
2022/10/17 05:03:52;;;;;;;10.93;5.30;;;13.80;99.90;;;;;;5067633;28;20545;-74
2022/10/17 05:06:20;;;;;;;9.50;6.68;;;13.90;99.90;;;;;;5082816;28;20303;-73
2022/10/17 05:08:47;;;;;;;10.82;5.95;;;13.80;99.90;;;;;;5065983;28;20576;-73
2022/10/17 05:11:24;;;;;;;10.77;6.07;;;13.90;99.90;;;;;;5072569;28;20037;-74
2022/10/17 05:13:55;;;;;;;10.38;6.18;;;13.90;99.90;;;;;;5067096;28;20036;-74
2022/10/17 05:16:22;;;;;;;9.73;6.43;;;13.90;99.90;;;;;;5076296;28;20161;-73
2022/10/17 05:18:53;;;;;;;12.43;6.30;;;13.90;99.90;;;;;;5066555;28;20040;-73
2022/10/17 05:21:19;;;;;;;11.02;6.30;;;13.90;99.90;;;;;;5067600;28;20183;-74
2022/10/17 05:23:45;;;;;;;9.27;5.43;;;14.00;99.90;;;;;;5073210;28;20097;-73
2022/10/17 05:26:10;;;;;;;9.27;6.28;;;14.00;99.90;;;;;;5100379;28;20056;-73
2022/10/17 05:28:36;;;;;;;12.32;5.70;;;14.00;99.90;;;;;;5066949;28;20066;-74
2022/10/17 05:31:06;;;;;;;11.30;6.07;;;14.10;99.90;;;;;;5067181;28;20451;-73
2022/10/17 05:33:33;;;;;;;9.30;6.00;;;14.10;99.90;;;;;;5066556;28;20514;-74
2022/10/17 05:35:58;;;;;;;11.88;6.38;;;14.10;99.90;;;;;;5079663;28;20044;-74
2022/10/17 05:38:25;;;;;;;9.80;5.65;;;14.00;99.90;;;;;;5094183;28;20480;-74
2022/10/17 05:40:51;;;;;;;10.90;6.60;;;14.10;99.90;;;;;;5102037;28;20056;-73
2022/10/17 05:43:17;;;;;;;9.73;6.40;;;14.00;99.90;;;;;;5086903;28;20361;-73
2022/10/17 05:45:42;;;;;;;9.38;5.45;;;14.10;99.90;;;;;;5056822;28;20052;-74
2022/10/17 05:48:08;;;;;;;12.63;6.47;;;14.10;99.90;;;;;;5073000;28;20482;-76
2022/10/17 05:50:34;;;;;;;10.13;6.70;;;14.10;99.90;;;;;;5079067;28;20070;-75
2022/10/17 05:53:00;;;;;;;;;;;14.10;99.90;;;;;;5085916;28;20123;-74
2022/10/17 05:55:29;;;;;;;9.50;5.50;;;14.10;99.90;;;;;;5079541;28;20491;-73
2022/10/17 05:57:54;;;;;;;10.40;5.97;;;14.10;99.90;;;;;;5058134;28;20064;-74
2022/10/17 06:00:20;;;;;;;8.23;5.93;;;14.10;99.90;;;;;;5087548;28;20093;-74
2022/10/17 06:02:47;;;;;;;11.48;5.82;;;14.10;99.90;;;;;;5082022;28;20035;-75
2022/10/17 06:05:13;;;;;;;12.02;6.18;;;14.10;99.90;;;;;;5086570;28;20036;-75
2022/10/17 06:07:39;;;;;;;11.55;6.88;;;14.10;99.90;;;;;;5071153;28;20127;-75
2022/10/17 06:10:06;;;;;;;10.50;6.43;;;14.20;99.90;;;;;;5069669;28;20489;-74
2022/10/17 06:12:31;;;;;;;12.43;6.13;;;14.20;99.90;;;;;;5087604;28;20466;-79
2022/10/17 06:14:57;;;;;;;9.77;5.70;;;14.20;99.90;;;;;;5080120;28;20151;-76
2022/10/17 06:17:24;;;;;;;9.35;5.40;;;14.20;99.90;;;;;;5066124;28;20048;-75
2022/10/17 06:19:49;;;;;;;8.30;5.28;;;14.20;99.90;;;;;;5077551;28;20040;-74
2022/10/17 06:22:15;;;;;;;9.40;5.88;;;14.30;99.90;;;;;;5086369;28;20467;-74
2022/10/17 06:24:41;;;;;;;13.30;5.97;;;14.40;99.90;;;;;;5075362;28;20054;-74
2022/10/17 06:27:07;;;;;;;9.15;5.13;;;14.40;99.90;;;;;;5064562;28;20037;-74
2022/10/17 06:29:33;;;;;;;;;;;14.50;99.90;;;;;;5074885;28;20048;-73
2022/10/17 06:31:59;;;;;;;10.38;5.32;;;14.50;99.90;;;;;;5087214;28;19923;-74
2022/10/17 06:34:24;;;;;;;9.10;5.57;;;14.60;99.90;;;;;;5097697;28;20036;-74
2022/10/17 06:36:50;;;;;;;11.50;5.82;;;14.60;99.90;;;;;;5086667;28;20280;-74
2022/10/17 06:39:15;;;;;;;8.90;5.13;;;14.70;99.90;;;;;;5075250;28;20032;-74
2022/10/17 06:41:43;;;;;;;9.47;4.53;;;14.70;99.90;;;;;;5076273;28;20284;-73
2022/10/17 06:44:12;;;;;;;10.00;5.30;;;14.80;99.90;;;;;;5088100;28;20490;-74
2022/10/17 06:46:38;;;;;;;9.85;5.05;;;14.90;99.90;;;;;;5066063;28;20045;-74
2022/10/17 06:49:05;;;;;;;9.90;5.00;;;14.90;99.90;;;;;;5100576;28;20042;-74
2022/10/17 06:51:34;;;;;;;13.90;5.65;;;14.90;99.90;;;;;;5102839;28;20050;-74
2022/10/17 06:53:59;;;;;;;9.95;5.05;;;15.00;99.90;;;;;;5086909;28;20076;-74
2022/10/17 06:56:25;;;;;;;11.03;4.60;;;15.00;99.90;;;;;;5085584;28;20112;-74
2022/10/17 06:58:51;;;;;;;7.88;4.50;;;15.10;99.90;;;;;;5093707;28;20268;-74
2022/10/17 07:01:17;;;;;;;;;;;15.10;99.90;;;;;;5075792;28;20065;-73
2022/10/17 07:03:42;;;;;;;11.25;4.80;;;15.10;99.90;;;;;;5065975;28;20385;-74
2022/10/17 07:06:12;;;;;;;12.23;4.53;;;15.20;99.90;;;;;;5065922;28;20045;-74
2022/10/17 07:08:41;;;;;;;9.98;4.55;;;15.30;99.90;;;;;;5074899;28;20766;-74
2022/10/17 07:11:12;;;;;;;9.07;4.80;;;15.30;99.90;;;;;;5072202;28;20036;-74
2022/10/17 07:13:38;;;;;;;11.68;4.85;;;15.40;99.90;;;;;;5080499;28;20488;-74
2022/10/17 07:16:04;;;;;;;8.10;4.60;;;15.50;99.90;;;;;;5068877;28;20079;-74
2022/10/17 07:18:30;;;;;;;7.50;4.00;;;15.50;99.90;;;;;;5084491;28;20100;-74
2022/10/17 07:20:56;;;;;;;7.25;4.53;;;15.60;99.90;;;;;;5096471;28;20043;-74
2022/10/17 07:23:22;;;;;;;7.25;3.83;;;15.70;99.90;;;;;;5089272;28;20551;-74
2022/10/17 07:25:48;;;;;;;;;;;15.70;99.90;;;;;;5086278;28;20047;-73
2022/10/17 07:28:15;;;;;;;8.00;3.83;;;15.80;99.90;;;;;;5072431;28;19920;-74
2022/10/17 07:30:41;;;;;;;7.80;4.40;;;15.80;99.90;;;;;;5049902;28;20044;-74
2022/10/17 07:33:07;;;;;;;6.40;4.15;;;16.00;99.90;;;;;;5063677;28;20106;-74
2022/10/17 07:35:33;;;;;;;8.75;4.30;;;16.00;99.90;;;;;;5065273;28;20072;-74
2022/10/17 07:37:58;;;;;;;9.20;4.47;;;16.00;99.90;;;;;;5065070;28;20037;-74
2022/10/17 07:40:24;;;;;;;6.97;4.30;;;16.10;99.90;;;;;;5096954;28;20063;-74
2022/10/17 07:42:50;;;;;;;7.20;4.43;;;16.10;99.90;;;;;;5083366;28;20119;-74
2022/10/17 07:45:15;;;;;;;7.63;4.07;;;16.10;99.90;;;;;;5066102;28;20051;-74
2022/10/17 07:47:41;;;;;;;8.82;3.55;;;16.20;99.90;;;;;;5063976;28;20141;-75
2022/10/17 07:50:08;;;;;;;10.70;4.82;;;16.20;99.90;;;;;;5069548;28;20116;-74
2022/10/17 07:52:33;;;;;;;9.40;5.10;;;16.20;99.90;;;;;;5083757;28;20048;-74
2022/10/17 07:54:59;;;;;;;6.82;4.13;;;16.30;99.90;;;;;;5088387;28;20124;-74
2022/10/17 07:57:25;;;;;;;7.80;4.13;;;16.40;99.90;;;;;;5072322;28;20040;-74
2022/10/17 07:59:50;;;;;;;8.13;4.88;;;16.40;99.90;;;;;;5081335;28;20206;-75
2022/10/17 08:02:24;;;;;;;10.60;3.90;;;16.40;99.90;;;;;;5074340;28;20534;-74
2022/10/17 08:04:51;;;;;;;7.03;4.03;;;16.50;99.90;;;;;;5069172;28;20040;-74
2022/10/17 08:07:18;;;;;;;6.50;4.60;;;16.50;99.90;;;;;;5074161;28;20488;-74
2022/10/17 08:09:44;;;;;;;8.70;4.22;;;16.50;99.90;;;;;;5087052;28;20117;-74
2022/10/17 08:12:10;;;;;;;;;;;16.50;99.90;;;;;;5074929;28;20076;-74
2022/10/17 08:14:36;;;;;;;6.97;4.30;;;16.50;99.90;;;;;;5058922;28;19990;-73
2022/10/17 08:17:01;;;;;;;8.27;4.00;;;16.60;99.90;;;;;;5066726;28;20190;-73
2022/10/17 08:19:27;;;;;;;8.53;4.63;;;16.60;99.90;;;;;;5095172;28;20079;-74
2022/10/17 08:21:53;;;;;;;6.85;4.05;;;16.60;99.90;;;;;;5088570;28;20741;-74
2022/10/17 08:24:19;;;;;;;7.13;4.38;;;16.70;99.90;;;;;;5072197;28;20063;-74
2022/10/17 08:26:45;;;;;;;7.45;4.20;;;16.60;99.90;;;;;;5070476;28;20446;-74
2022/10/17 08:29:15;;;;;;;13.27;4.63;;;16.60;99.90;;;;;;5071742;28;20052;-75
2022/10/17 08:31:41;;;;;;;7.20;4.50;;;16.60;99.90;;;;;;5073841;28;20052;-75
2022/10/17 08:34:07;;;;;;;;;;;16.60;99.90;;;;;;5082194;28;20074;-74
2022/10/17 08:36:33;;;;;;;10.05;4.55;;;16.60;99.90;;;;;;5079387;28;20366;-74
2022/10/17 08:38:59;;;;;;;9.27;4.45;;;16.70;99.90;;;;;;5098325;22;20036;-71
2022/10/17 08:41:27;;;;;;;7.32;4.30;;;16.70;99.90;;;;;;5089747;28;20044;-73
2022/10/17 08:44:11;;;;;;;8.90;4.20;;;16.70;99.90;;;;;;5090244;28;20032;-71
2022/10/17 08:46:40;;;;;;;8.90;4.40;;;16.70;99.90;;;;;;5090092;28;20044;-70
2022/10/17 08:49:12;;;;;;;10.52;4.47;;;16.70;99.90;;;;;;5088156;28;20040;-70
2022/10/17 08:51:46;;;;;;;6.40;4.20;;;16.70;99.90;;;;;;5088022;28;20063;-71
2022/10/17 08:54:18;;;;;;;6.68;4.43;;;16.70;99.90;;;;;;5088240;28;20324;-71
2022/10/17 08:56:48;;;;;;;7.57;4.47;;;16.70;99.90;;;;;;5088135;28;20032;-71
2022/10/17 08:59:17;;;;;;;9.13;4.53;;;16.70;99.90;;;;;;5087190;28;20051;-72
2022/10/17 09:02:14;;;;;;;7.18;4.82;;;16.80;99.90;;;;;;5088111;28;20051;-71
2022/10/17 09:04:47;;;;;;;8.52;4.22;;;16.80;99.90;;;;;;5098720;28;20070;-71
2022/10/17 09:07:16;;;;;;;13.82;4.97;;;16.80;99.90;;;;;;5109343;28;20044;-71
2022/10/17 09:09:50;;;;;;;10.18;4.65;;;16.70;99.90;;;;;;5110421;28;20092;-72
2022/10/17 09:12:22;;;;;;;9.18;4.78;;;16.80;99.90;;;;;;5107898;28;20039;-72
2022/10/17 09:15:22;;;;;;;7.30;4.68;;;16.80;99.90;;;;;;5104677;28;20101;-71
2022/10/17 09:17:59;;;;;;;9.07;4.63;;;16.80;99.90;;;;;;5090144;28;20044;-76
2022/10/17 09:20:50;;;;;;;9.82;4.78;;;16.80;99.90;;;;;;5087916;28;20043;-72
2022/10/17 09:23:22;;;;;;;9.88;5.22;;;16.80;99.90;;;;;;5088925;28;20040;-72
2022/10/17 09:25:52;;;;;;;9.70;4.85;;;16.80;99.90;;;;;;5087632;28;20063;-72
2022/10/17 09:28:17;;;;;;;8.95;5.00;;;16.80;99.90;;;;;;5087875;28;20476;-71
2022/10/17 09:30:54;;;;;;;7.63;4.75;;;16.70;99.90;;;;;;5087261;28;20082;-72
2022/10/17 09:33:24;;;;;;;;;;;16.70;99.90;;;;;;5089627;28;20044;-71
2022/10/17 09:35:50;;;;;;;8.38;4.15;;;16.70;99.90;;;;;;5086993;28;19916;-72
2022/10/17 09:38:20;;;;;;;10.20;4.53;;;16.70;99.90;;;;;;5088562;28;20055;-72
2022/10/17 09:40:53;;;;;;;6.43;4.28;;;16.70;99.90;;;;;;5086283;28;20067;-71
2022/10/17 09:43:19;;;;;;;8.00;4.43;;;16.70;99.90;;;;;;5079033;28;20214;-72
2022/10/17 09:46:03;;;;;;;6.95;5.20;;;16.70;99.90;;;;;;5076688;28;20072;-72
2022/10/17 09:48:45;;;;;;;7.45;4.32;;;16.60;99.90;;;;;;5072099;28;20044;-73
2022/10/17 09:51:12;;;;;;;11.43;5.35;;;16.60;99.90;;;;;;5060494;28;20036;-73
2022/10/17 09:53:41;;;;;;;9.30;4.40;;;16.60;99.90;;;;;;5085432;28;20047;-72
2022/10/17 09:56:18;;;;;;;9.27;4.35;;;16.60;99.90;;;;;;5076029;28;20040;-72
2022/10/17 09:58:48;;;;;;;9.68;4.50;;;16.60;99.90;;;;;;5067722;28;20388;-72
2022/10/17 10:01:34;;;;;;;10.82;4.57;;;16.50;99.90;;;;;;5081832;28;20063;-72
2022/10/17 10:04:14;;;;;;;9.70;4.70;;;16.50;99.90;;;;;;5073369;28;20072;-71
2022/10/17 10:06:59;;;;;;;8.18;3.67;;;16.40;99.90;;;;;;5076044;28;20127;-72
2022/10/17 10:09:27;;;;;;;7.13;4.18;;;16.50;99.90;;;;;;5067106;28;20036;-72
2022/10/17 10:11:57;;;;;;;8.70;4.90;;;16.50;99.90;;;;;;5075271;28;20042;-72
2022/10/17 10:14:28;;;;;;;8.02;4.80;;;16.50;99.90;;;;;;5067867;28;20082;-72
2022/10/17 10:16:54;;;;;;;8.23;4.50;;;16.50;99.90;;;;;;5087188;28;20042;-72
2022/10/17 10:19:37;;;;;;;6.47;4.00;;;16.50;99.90;;;;;;5069671;28;20044;-72
2022/10/17 10:22:05;;;;;;;14.20;5.13;;;16.50;99.90;;;;;;5072702;28;20054;-72
2022/10/17 10:24:31;;;;;;;8.35;4.60;;;16.50;99.90;;;;;;5078310;28;20139;-72
2022/10/17 10:27:00;;;;;;;7.18;3.85;;;16.50;99.90;;;;;;5072682;28;20307;-72
2022/10/17 10:30:04;;;;;;;7.50;4.03;;;16.50;99.90;;;;;;5068466;28;20047;-72
2022/10/17 10:32:36;;;;;;;8.55;4.38;;;16.50;99.90;;;;;;5047808;28;20458;-74
2022/10/17 10:35:18;;;;;;;6.13;4.03;;;16.50;99.90;;;;;;5051446;28;20063;-74
2022/10/17 10:37:49;;;;;;;8.75;4.57;;;16.50;99.90;;;;;;5077203;28;20052;-72
2022/10/17 10:40:29;;;;;;;9.82;4.75;;;16.50;99.90;;;;;;5085039;28;20059;-72
2022/10/17 10:42:59;;;;;;;8.80;4.43;;;16.50;99.90;;;;;;5084012;28;20062;-72
2022/10/17 10:45:28;;;;;;;8.30;4.55;;;16.50;99.90;;;;;;5061386;28;20047;-71
2022/10/17 10:47:58;;;;;;;8.38;4.93;;;16.50;99.90;;;;;;5037422;28;20047;-71
2022/10/17 10:50:27;;;;;;;8.80;4.28;;;16.50;99.90;;;;;;5044427;28;20179;-71
2022/10/17 10:53:25;;;;;;;7.78;4.40;;;16.50;99.90;;;;;;5085873;28;20588;-72
2022/10/17 10:55:57;;;;;;;9.23;4.80;;;16.60;99.90;;;;;;5098990;28;20040;-72
2022/10/17 10:58:33;;;;;;;8.52;4.82;;;16.60;99.90;;;;;;5078274;28;20340;-72
2022/10/17 11:01:08;;;;;;;7.53;4.77;;;16.60;99.90;;;;;;5081763;28;20044;-72
2022/10/17 11:03:41;;;;;;;10.35;4.47;;;16.60;99.90;;;;;;5082368;28;20119;-72
2022/10/17 11:06:18;;;;;;;9.57;4.47;;;16.60;99.90;;;;;;5083146;28;20068;-72
2022/10/17 11:09:13;;;;;;;8.60;4.22;;;16.60;99.90;;;;;;5031438;28;20571;-70
2022/10/17 11:11:47;;;;;;;9.23;4.57;;;16.60;99.90;;;;;;5021799;28;20068;-71
2022/10/17 11:14:22;;;;;;;6.88;3.92;;;16.60;99.90;;;;;;5056336;28;20157;-71
2022/10/17 11:17:12;;;;;;;5.93;3.70;;;16.60;99.90;;;;;;5071429;28;20109;-71
2022/10/17 11:19:58;;;;;;;7.60;4.13;;;16.50;99.90;;;;;;5045527;28;20044;-71
2022/10/17 11:22:32;;;;;;;11.70;4.63;;;16.60;99.90;;;;;;5002944;28;20074;-71
2022/10/17 11:25:20;;;;;;;9.75;5.05;;;16.60;99.90;;;;;;5017984;28;20348;-71
2022/10/17 11:27:49;;;;;;;7.60;4.63;;;16.60;99.90;;;;;;5011722;28;20048;-71
2022/10/17 11:30:16;;;;;;;9.13;4.22;;;16.60;99.90;;;;;;5074795;28;20028;-71
2022/10/17 11:32:52;;;;;;;8.88;4.18;;;16.60;99.90;;;;;;5099466;28;20038;-72
2022/10/17 11:35:33;;;;;;;5.45;3.47;;;16.60;99.90;;;;;;5075987;28;20085;-71
2022/10/17 11:38:14;;;;;;;7.90;4.43;;;16.60;99.90;;;;;;5049245;28;20114;-72
2022/10/17 11:40:45;;;;;;;8.75;3.60;;;16.60;99.90;;;;;;5077197;28;20143;-71
2022/10/17 11:43:26;;;;;;;6.47;3.50;;;16.60;99.90;;;;;;5077700;28;20485;-71
2022/10/17 11:46:00;;;;;;;5.75;3.63;;;16.60;99.90;;;;;;5080087;28;20076;-72
2022/10/17 11:48:38;;;;;;;5.50;2.95;;;16.50;99.90;;;;;;5083427;28;20036;-72
2022/10/17 11:51:10;;;;;;;7.13;3.08;;;16.60;99.90;;;;;;5093618;28;20076;-71
2022/10/17 11:53:54;;;;;;;5.80;3.30;;;16.50;99.90;;;;;;5083467;28;20036;-72
2022/10/17 11:56:30;;;;;;;6.07;3.47;;;16.50;99.90;;;;;;5073824;28;20056;-71
2022/10/17 11:59:24;;;;;;;5.72;3.45;;;16.50;99.90;;;;;;5094636;28;20132;-71
2022/10/17 12:02:01;;;;;;;5.50;3.63;;;16.60;99.90;;;;;;5065105;28;20584;-72
2022/10/17 12:04:55;;;;;;;5.97;3.80;;;16.60;99.90;;;;;;5075529;28;20044;-72
2022/10/17 12:07:58;;;;;;;4.93;3.13;;;16.70;99.90;;;;;;5078990;28;20059;-72
2022/10/17 12:10:50;;;;;;;6.68;4.07;;;16.70;99.90;;;;;;5074581;28;20085;-71
2022/10/17 12:13:29;;;;;;;6.15;3.58;;;16.70;99.90;;;;;;5061676;28;20486;-72
2022/10/17 12:15:56;;;;;;;6.30;3.20;;;16.70;99.90;;;;;;5093223;28;20037;-71
2022/10/17 12:18:26;;;;;;;5.97;3.03;;;16.70;99.90;;;;;;5087936;28;20058;-72
2022/10/17 12:20:57;;;;;;;5.45;2.65;;;16.80;99.90;;;;;;5092283;28;20036;-72
2022/10/17 12:23:28;;;;;;;5.82;3.05;;;16.70;99.90;;;;;;5091949;28;20032;-72
2022/10/17 12:25:58;;;;;;;4.20;2.38;;;16.70;99.90;;;;;;5077605;28;20037;-72
2022/10/17 12:28:31;;;;;;;4.65;3.00;;;16.70;99.90;;;;;;5086925;28;20047;-72
2022/10/17 12:31:21;;;;;;;3.88;2.13;;;16.60;99.90;;;;;;5085100;28;20527;-72
2022/10/17 12:34:15;;;;;;;5.00;2.30;;;16.50;99.90;;;;;;5074599;28;20397;-72
2022/10/17 12:36:41;;;;;;;7.88;2.50;;;16.50;99.90;;;;;;5088320;28;20127;-72
2022/10/17 12:39:10;;;;;;;3.88;1.98;;;16.50;99.90;;;;;;5091162;28;20111;-72
2022/10/17 12:41:40;;;;;;;4.22;1.83;;;16.40;99.90;;;;;;5071700;28;20044;-72
2022/10/17 12:44:12;;;;;;;3.92;2.08;;;16.40;99.90;;;;;;5084398;28;20159;-72
2022/10/17 12:46:51;;;;;;;4.97;2.17;;;16.30;99.90;;;;;;5081066;28;20153;-72
2022/10/17 12:49:38;;;;;;;6.30;2.13;;;16.30;99.90;;;;;;5077812;28;20036;-71
2022/10/17 12:52:16;;;;;;;5.05;2.08;;;16.30;99.90;;;;;;5067875;28;20125;-71
2022/10/17 12:55:08;;;;;;;5.70;1.88;;;16.30;99.90;;;;;;5062799;28;20128;-72
2022/10/17 12:57:50;;;;;;;6.47;2.10;;;16.20;99.90;;;;;;5085417;28;20045;-71
2022/10/17 13:00:19;;;;;;;6.78;2.40;;;16.20;99.90;;;;;;5066986;28;20048;-71
2022/10/17 13:02:46;;;;;;;6.78;2.33;;;16.20;99.90;;;;;;5077958;28;20230;-71
2022/10/17 13:05:35;;;;;;;3.65;1.73;;;16.20;99.90;;;;;;5085450;28;20045;-72
2022/10/17 13:08:05;;;;;;;5.82;1.77;;;16.20;99.90;;;;;;5071248;28;20037;-73